M I D A S
Marine Information and Data Acquisition System
Tripno 1512 of the Zeeleeuw from 2008-06-27 07:43:53 to 2008-06-27 10:21:05
Back to CruiseResearch ActivitiesStationsMapUnderway DataData graphs

EquipmentUnitsComment
TimeDGPSUTC
LatitudeDGPSDM.mWGS84
LongitudeDGPSDM.mWGS84
HeadingGyrodeg 
SOGDGPSknotsSpeed over ground
COGDGPSdegCourse over ground
DepthEcho soundermeters200 kHz
Missing or incorrect values are displayed as -999
Navigation data collected by the RV Zeeleeuw from 2008-06-27 07:43:57 to 2008-06-27 10:23:23
Time Latitude Longitude Heading SOG COG Depth
2008-06-27 07:45:02 51°13.624 2°56.03 106.9 2.3 287 -999
2008-06-27 07:46:02 51°13.649 2°55.934 118.8 4.8 298 -999
2008-06-27 07:47:02 51°13.694 2°55.826 123 4.9 304 -999
2008-06-27 07:48:02 51°13.722 2°55.742 106.3 2.2 292 -999
2008-06-27 07:49:02 51°13.73 2°55.741 61.2 0.5 49 4.8
2008-06-27 07:50:02 51°13.719 2°55.721 41.4 0.2 345 -999
2008-06-27 07:51:02 51°13.77 2°55.697 328.7 5.8 329 13
2008-06-27 07:52:02 51°13.881 2°55.602 336.4 7.7 337 12.9
2008-06-27 07:53:02 51°13.989 2°55.531 339 6.7 338 13
2008-06-27 07:54:02 51°14.09 2°55.466 337.4 6.4 337 12.9
2008-06-27 07:55:02 51°14.184 2°55.373 322.2 7.5 321 12.9
2008-06-27 07:56:02 51°14.282 2°55.215 311.8 8.9 312 12.4
2008-06-27 07:57:02 51°14.395 2°55.014 314.5 11.4 317 12.9
2008-06-27 07:58:02 51°14.555 2°54.843 325.1 11.6 328 11.8
2008-06-27 07:59:02 51°14.722 2°54.678 324.8 11.8 327 11.6
2008-06-27 08:00:02 51°14.888 2°54.512 326.8 11.7 329 11.4
2008-06-27 08:01:02 51°15.059 2°54.361 328.9 11.7 332 10.4
2008-06-27 08:02:02 51°15.229 2°54.208 328.6 11.8 331 11.1
2008-06-27 08:03:02 51°15.399 2°54.053 328.7 11.8 330 11.6
2008-06-27 08:04:02 51°15.57 2°53.894 328.3 11.9 331 12.3
2008-06-27 08:05:02 51°15.741 2°53.737 328.6 11.9 329 12.5
2008-06-27 08:06:02 51°15.912 2°53.579 328.1 11.9 330 13
2008-06-27 08:07:02 51°16.086 2°53.427 329.8 11.9 332 13.2
2008-06-27 08:08:02 51°16.256 2°53.271 327 11.7 330 13.7
2008-06-27 08:09:02 51°16.426 2°53.119 329.1 11.8 331 13.4
2008-06-27 08:10:02 51°16.597 2°52.963 328.7 11.9 332 13.5
2008-06-27 08:11:02 51°16.778 2°52.831 334.4 11.9 338 12
2008-06-27 08:12:02 51°16.96 2°52.704 334.2 12.1 336 11.2
2008-06-27 08:13:02 51°17.144 2°52.587 337.7 11.9 338 11.3
2008-06-27 08:14:02 51°17.339 2°52.517 353.4 12.2 358 12.2
2008-06-27 08:15:02 51°17.544 2°52.535 4.1 12.2 1 12.1
2008-06-27 08:16:02 51°17.749 2°52.544 359 12.4 5 11.6
2008-06-27 08:17:02 51°17.954 2°52.536 356.2 12.5 355 12.3
2008-06-27 08:18:02 51°18.16 2°52.516 355.6 12.5 357 12.4
2008-06-27 08:19:02 51°18.368 2°52.502 358.1 12.5 -999 12.5
2008-06-27 08:20:02 51°18.574 2°52.491 357.6 12.5 359 13.4
2008-06-27 08:21:02 51°18.781 2°52.505 7.1 12.6 3 13.7
2008-06-27 08:22:02 51°18.988 2°52.537 3.4 12.4 7 14.1
2008-06-27 08:23:02 51°19.19 2°52.567 3.5 11.2 6 15.3
2008-06-27 08:24:02 51°19.297 2°52.532 307.8 4 313 16
2008-06-27 08:25:02 51°19.301 2°52.444 257.3 3.7 259 16.2
2008-06-27 08:26:02 51°19.313 2°52.347 281.9 3.8 287 16.7
2008-06-27 08:27:03 51°19.309 2°52.254 263 2.8 266 16.5
2008-06-27 08:28:02 51°19.311 2°52.205 272.1 1.2 286 16.9
2008-06-27 08:29:03 51°19.313 2°52.188 260.2 0.1 271 16.8
2008-06-27 08:30:02 51°19.308 2°52.19 245.4 0.6 194 16.6
2008-06-27 08:31:02 51°19.294 2°52.173 242.1 1.4 223 16.6
2008-06-27 08:32:02 51°19.279 2°52.149 244.3 0.9 219 16.8
2008-06-27 08:33:02 51°19.27 2°52.14 245.2 0.4 193 16.8
2008-06-27 08:34:02 51°19.262 2°52.143 241.9 0.3 156 16.7
2008-06-27 08:35:02 51°19.256 2°52.146 242.5 0.4 159 16.6
2008-06-27 08:36:02 51°19.249 2°52.151 242.5 0.3 152 16.6
2008-06-27 08:37:02 51°19.244 2°52.156 247.9 0.3 133 16.6
2008-06-27 08:38:02 51°19.241 2°52.164 251.3 0.4 109 16.5
2008-06-27 08:39:02 51°19.238 2°52.172 252.5 0.3 118 16.2
2008-06-27 08:40:02 51°19.236 2°52.18 256.7 0.4 103 16.3
2008-06-27 08:41:02 51°19.236 2°52.183 266 0.2 283 16.4
2008-06-27 08:42:02 51°19.24 2°52.172 281.7 0.6 314 16.3
2008-06-27 08:43:02 51°19.249 2°52.166 294.9 0.7 349 16.4
2008-06-27 08:44:02 51°19.261 2°52.164 300.9 0.9 359 16.5
2008-06-27 08:45:03 51°19.277 2°52.166 308.5 1.1 10 16.3
2008-06-27 08:46:02 51°19.29 2°52.172 309.7 0.8 26 16.7
2008-06-27 08:47:03 51°19.302 2°52.185 310 0.8 37 16.6
2008-06-27 08:48:02 51°19.313 2°52.197 301.4 0.7 32 16.6
2008-06-27 08:49:02 51°19.323 2°52.202 283.2 0.5 358 16.5
2008-06-27 08:50:02 51°19.329 2°52.189 270.3 0.8 278 16.5
2008-06-27 08:51:02 51°19.328 2°52.161 256.1 1.2 256 16.6
2008-06-27 08:52:02 51°19.315 2°52.128 241.1 1.6 230 16.6
2008-06-27 08:53:02 51°19.296 2°52.095 241.2 1.7 228 16.5
2008-06-27 08:54:02 51°19.283 2°52.061 253.2 1 249 16.4
2008-06-27 08:55:02 51°19.278 2°52.044 254.7 0.6 238 16.5
2008-06-27 08:56:02 51°19.275 2°52.038 253.3 0.1 174 16.6
2008-06-27 08:57:03 51°19.271 2°52.04 248.4 0.3 136 16.3
2008-06-27 08:58:02 51°19.268 2°52.049 240.7 0.4 113 16.4
2008-06-27 08:59:03 51°19.264 2°52.063 228.7 0.6 112 16.3
2008-06-27 09:00:02 51°19.261 2°52.08 213.7 0.8 106 16.4
2008-06-27 09:01:03 51°19.258 2°52.099 196.6 0.6 115 16.2
2008-06-27 09:02:02 51°19.251 2°52.118 195.3 0.8 124 16.5
2008-06-27 09:03:03 51°19.243 2°52.133 203.4 0.8 133 16.2
2008-06-27 09:04:02 51°19.234 2°52.142 214.1 0.7 148 15.9
2008-06-27 09:05:03 51°19.225 2°52.15 220.2 0.6 149 16
2008-06-27 09:06:02 51°19.217 2°52.158 227.4 0.8 162 15.9
2008-06-27 09:07:02 51°19.196 2°52.143 214 2.7 195 16
2008-06-27 09:08:03 51°19.15 2°52.2 116.9 4.7 106 15.6
2008-06-27 09:09:02 51°19.135 2°52.404 99.7 9.4 98 15
2008-06-27 09:10:02 51°19.118 2°52.648 111.2 7.9 112 14.3
2008-06-27 09:11:02 51°19.068 2°52.802 120 5.9 120 13.8
2008-06-27 09:12:02 51°19.01 2°52.905 153.9 4.7 154 13.4
2008-06-27 09:13:02 51°18.936 2°52.941 166.7 4.7 164 13.3
2008-06-27 09:14:02 51°18.858 2°52.983 163.9 5 162 13
2008-06-27 09:15:03 51°18.787 2°52.97 210.3 3.9 212 12.7
2008-06-27 09:16:02 51°18.738 2°52.905 220.6 3.9 220 12.7
2008-06-27 09:17:03 51°18.686 2°52.837 217.6 4.1 219 12.6
2008-06-27 09:18:02 51°18.646 2°52.788 221.8 2.2 222 12.6
2008-06-27 09:19:03 51°18.629 2°52.752 243.8 1.6 251 12.7
2008-06-27 09:20:02 51°18.631 2°52.71 280.7 1 298 12.5
2008-06-27 09:21:03 51°18.639 2°52.705 304.1 0.5 20 12.5
2008-06-27 09:22:02 51°18.646 2°52.714 331.6 0.6 49 12.5
2008-06-27 09:23:03 51°18.652 2°52.728 353.9 0.6 50 12.6
2008-06-27 09:24:03 51°18.658 2°52.74 6.3 0.5 48 12.5
2008-06-27 09:25:02 51°18.662 2°52.754 14.4 0.5 56 12.6
2008-06-27 09:26:03 51°18.666 2°52.768 18.6 0.6 68 12.5
2008-06-27 09:27:02 51°18.669 2°52.781 22.8 0.6 76 12.6
2008-06-27 09:28:02 51°18.672 2°52.794 22.6 0.5 67 12.6
2008-06-27 09:29:02 51°18.675 2°52.807 22.1 0.5 72 12.4
2008-06-27 09:30:02 51°18.678 2°52.819 21.7 0.5 75 12.5
2008-06-27 09:31:02 51°18.681 2°52.832 18.6 0.5 61 12.5
2008-06-27 09:32:02 51°18.684 2°52.844 16.7 0.4 74 12.7
2008-06-27 09:33:03 51°18.686 2°52.857 18.3 0.4 81 12.7
2008-06-27 09:34:02 51°18.687 2°52.868 14.6 0.3 80 12.5
2008-06-27 09:35:03 51°18.689 2°52.881 12.6 0.4 75 12.4
2008-06-27 09:36:02 51°18.69 2°52.892 14.7 0.3 85 12.6
2008-06-27 09:37:03 51°18.69 2°52.904 18.7 0.4 90 12.5
2008-06-27 09:38:03 51°18.69 2°52.914 20.9 0.3 88 12.4
2008-06-27 09:39:03 51°18.69 2°52.925 21 0.5 100 12.5
2008-06-27 09:40:03 51°18.69 2°52.936 21.8 0.4 88 12.4
2008-06-27 09:41:03 51°18.69 2°52.946 21.2 0.3 87 12.6
2008-06-27 09:42:03 51°18.69 2°52.955 20.3 0.3 86 12.4
2008-06-27 09:43:02 51°18.69 2°52.964 20 0.3 73 12.1
2008-06-27 09:44:03 51°18.69 2°52.972 21.1 0.4 97 12.3
2008-06-27 09:45:02 51°18.689 2°52.981 24.2 0.4 109 12.2
2008-06-27 09:46:02 51°18.688 2°52.989 24.6 0.5 104 12.2
2008-06-27 09:47:03 51°18.687 2°52.998 22.1 0.5 93 12
2008-06-27 09:48:02 51°18.689 2°53.008 18.5 0.7 45 12.2
2008-06-27 09:49:03 51°18.712 2°53.044 53.7 3.1 60 12.3
2008-06-27 09:50:02 51°18.699 2°53.121 131.8 3.4 145 12.2
2008-06-27 09:51:02 51°18.641 2°53.116 203.7 4.1 208 12.2
2008-06-27 09:52:02 51°18.545 2°53.031 206.3 8.5 209 12.1
2008-06-27 09:53:02 51°18.409 2°52.914 206.2 9.7 210 11.8
2008-06-27 09:54:02 51°18.266 2°52.79 206.3 9.8 210 11.6
2008-06-27 09:55:02 51°18.121 2°52.671 201.2 9.8 202 11.4
2008-06-27 09:56:02 51°17.964 2°52.591 195.1 9.9 196 10.9
2008-06-27 09:57:02 51°17.806 2°52.515 194.9 9.8 195 10.9
2008-06-27 09:58:02 51°17.646 2°52.454 191.6 9.8 190 11
2008-06-27 09:59:02 51°17.486 2°52.394 191.6 10 191 10.8
2008-06-27 10:00:02 51°17.323 2°52.371 177.6 9.8 182 10.9
2008-06-27 10:01:02 51°17.159 2°52.389 172.9 9.9 172 10.5
2008-06-27 10:02:02 51°17.004 2°52.469 153.6 9.9 157 10.2
2008-06-27 10:03:02 51°16.856 2°52.583 152.9 9.7 155 10.2
2008-06-27 10:04:02 51°16.71 2°52.702 151.5 10 150 10.9
2008-06-27 10:05:02 51°16.563 2°52.82 152.5 9.8 154 12
2008-06-27 10:06:02 51°16.415 2°52.937 152.4 10 153 12.1
2008-06-27 10:07:02 51°16.27 2°53.067 148 10.1 150 12.1
2008-06-27 10:08:02 51°16.123 2°53.192 150.6 9.9 152 12
2008-06-27 10:09:02 51°15.974 2°53.311 150.4 10.1 155 11.8
2008-06-27 10:10:02 51°15.825 2°53.428 151.5 10.1 154 11.5
2008-06-27 10:11:02 51°15.676 2°53.548 150.8 10.1 152 11.2
2008-06-27 10:12:02 51°15.528 2°53.664 152 9.9 151 10.8
2008-06-27 10:13:02 51°15.379 2°53.781 150.7 9.8 154 10.4
2008-06-27 10:14:02 51°15.232 2°53.898 152.4 9.9 151 9.8
2008-06-27 10:15:02 51°15.085 2°54.016 152.1 9.7 152 9.5
2008-06-27 10:16:02 51°14.939 2°54.136 147.9 9.6 150 9.1
2008-06-27 10:17:02 51°14.807 2°54.291 140.2 9.9 143 9.9
2008-06-27 10:18:02 51°14.683 2°54.457 137 9.6 139 10.5
2008-06-27 10:19:02 51°14.566 2°54.633 133.3 9.6 133 10.5
2008-06-27 10:20:02 51°14.46 2°54.825 127.5 9.7 127 11.2
2008-06-27 10:21:02 51°14.364 2°55.032 125.5 9.8 125 10.5
2008-06-27 10:22:02 51°14.276 2°55.221 130.2 8.4 129 10.8
2008-06-27 10:23:02 51°14.175 2°55.365 144.8 8 145 11.5